sensor_id;sensor_type;location;lat;lon;timestamp;P1;durP1;ratioP1;P2;durP2;ratioP2
71320;SDS011;59118;54.322;18.576;2022-07-29T00:01:03;9.70;;;3.42;;
71320;SDS011;59118;54.322;18.576;2022-07-29T00:03:29;13.37;;;3.63;;
71320;SDS011;59118;54.322;18.576;2022-07-29T00:05:56;9.60;;;3.97;;
71320;SDS011;59118;54.322;18.576;2022-07-29T00:08:24;14.48;;;4.45;;
71320;SDS011;59118;54.322;18.576;2022-07-29T00:10:51;11.52;;;4.05;;
71320;SDS011;59118;54.322;18.576;2022-07-29T00:13:17;13.32;;;4.28;;
71320;SDS011;59118;54.322;18.576;2022-07-29T00:15:57;13.97;;;4.87;;
71320;SDS011;59118;54.322;18.576;2022-07-29T00:18:29;14.63;;;4.82;;
71320;SDS011;59118;54.322;18.576;2022-07-29T00:20:56;12.95;;;4.28;;
71320;SDS011;59118;54.322;18.576;2022-07-29T00:23:22;10.63;;;3.60;;
71320;SDS011;59118;54.322;18.576;2022-07-29T00:25:49;10.55;;;3.42;;
71320;SDS011;59118;54.322;18.576;2022-07-29T00:28:17;11.90;;;3.67;;
71320;SDS011;59118;54.322;18.576;2022-07-29T00:30:43;9.38;;;3.70;;
71320;SDS011;59118;54.322;18.576;2022-07-29T00:33:10;10.77;;;3.60;;
71320;SDS011;59118;54.322;18.576;2022-07-29T00:35:36;12.27;;;3.53;;
71320;SDS011;59118;54.322;18.576;2022-07-29T00:38:14;11.40;;;3.35;;
71320;SDS011;59118;54.322;18.576;2022-07-29T00:40:42;11.80;;;3.90;;
71320;SDS011;59118;54.322;18.576;2022-07-29T00:43:09;13.25;;;3.80;;
71320;SDS011;59118;54.322;18.576;2022-07-29T00:45:37;10.70;;;3.42;;
71320;SDS011;59118;54.322;18.576;2022-07-29T00:48:03;10.55;;;3.58;;
71320;SDS011;59118;54.322;18.576;2022-07-29T00:50:31;10.35;;;3.42;;
71320;SDS011;59118;54.322;18.576;2022-07-29T00:52:58;10.47;;;3.60;;
71320;SDS011;59118;54.322;18.576;2022-07-29T00:55:25;8.73;;;3.53;;
71320;SDS011;59118;54.322;18.576;2022-07-29T00:57:51;10.27;;;3.72;;
71320;SDS011;59118;54.322;18.576;2022-07-29T01:00:20;7.45;;;3.40;;
71320;SDS011;59118;54.322;18.576;2022-07-29T01:02:48;8.38;;;3.42;;
71320;SDS011;59118;54.322;18.576;2022-07-29T01:05:19;11.43;;;3.90;;
71320;SDS011;59118;54.322;18.576;2022-07-29T01:07:47;8.38;;;3.13;;
71320;SDS011;59118;54.322;18.576;2022-07-29T01:10:15;8.35;;;3.00;;
71320;SDS011;59118;54.322;18.576;2022-07-29T01:12:44;8.43;;;3.28;;
71320;SDS011;59118;54.322;18.576;2022-07-29T01:15:12;9.43;;;3.33;;
71320;SDS011;59118;54.322;18.576;2022-07-29T01:17:43;6.83;;;3.20;;
71320;SDS011;59118;54.322;18.576;2022-07-29T01:23:46;8.70;;;3.50;;
71320;SDS011;59118;54.322;18.576;2022-07-29T01:34:27;10.88;;;3.28;;
71320;SDS011;59118;54.322;18.576;2022-07-29T01:37:15;9.30;;;3.60;;
71320;SDS011;59118;54.322;18.576;2022-07-29T01:39:43;8.23;;;3.50;;
71320;SDS011;59118;54.322;18.576;2022-07-29T01:45:09;10.27;;;3.23;;
71320;SDS011;59118;54.322;18.576;2022-07-29T01:50:30;8.35;;;3.10;;
71320;SDS011;59118;54.322;18.576;2022-07-29T01:53:44;8.98;;;3.42;;
71320;SDS011;59118;54.322;18.576;2022-07-29T01:56:14;9.15;;;3.38;;
71320;SDS011;59118;54.322;18.576;2022-07-29T01:58:43;12.13;;;3.77;;
71320;SDS011;59118;54.322;18.576;2022-07-29T02:01:10;7.68;;;3.80;;
71320;SDS011;59118;54.322;18.576;2022-07-29T02:03:37;11.32;;;4.00;;
71320;SDS011;59118;54.322;18.576;2022-07-29T02:06:04;8.43;;;3.33;;
71320;SDS011;59118;54.322;18.576;2022-07-29T02:08:32;9.20;;;3.60;;
71320;SDS011;59118;54.322;18.576;2022-07-29T02:10:59;9.37;;;3.20;;
71320;SDS011;59118;54.322;18.576;2022-07-29T02:13:27;8.63;;;3.33;;
71320;SDS011;59118;54.322;18.576;2022-07-29T02:15:55;10.45;;;4.00;;
71320;SDS011;59118;54.322;18.576;2022-07-29T02:18:23;9.85;;;3.22;;
71320;SDS011;59118;54.322;18.576;2022-07-29T02:20:52;9.43;;;3.38;;
71320;SDS011;59118;54.322;18.576;2022-07-29T02:23:21;10.07;;;3.47;;
71320;SDS011;59118;54.322;18.576;2022-07-29T02:25:49;8.65;;;3.47;;
71320;SDS011;59118;54.322;18.576;2022-07-29T02:28:20;8.82;;;3.70;;
71320;SDS011;59118;54.322;18.576;2022-07-29T02:30:48;8.13;;;3.25;;
71320;SDS011;59118;54.322;18.576;2022-07-29T02:33:18;9.43;;;3.70;;
71320;SDS011;59118;54.322;18.576;2022-07-29T02:35:46;8.57;;;3.70;;
71320;SDS011;59118;54.322;18.576;2022-07-29T02:38:14;11.35;;;3.58;;
71320;SDS011;59118;54.322;18.576;2022-07-29T02:41:01;11.23;;;3.90;;
71320;SDS011;59118;54.322;18.576;2022-07-29T02:43:30;7.40;;;3.17;;
71320;SDS011;59118;54.322;18.576;2022-07-29T02:45:58;9.85;;;3.75;;
71320;SDS011;59118;54.322;18.576;2022-07-29T02:48:27;9.53;;;3.83;;
71320;SDS011;59118;54.322;18.576;2022-07-29T02:51:01;9.48;;;3.70;;
71320;SDS011;59118;54.322;18.576;2022-07-29T02:53:33;9.27;;;3.80;;
71320;SDS011;59118;54.322;18.576;2022-07-29T02:56:08;8.05;;;3.45;;
71320;SDS011;59118;54.322;18.576;2022-07-29T02:58:38;9.45;;;3.60;;
71320;SDS011;59118;54.322;18.576;2022-07-29T03:01:13;8.53;;;3.53;;
71320;SDS011;59118;54.322;18.576;2022-07-29T03:03:47;9.32;;;3.70;;
71320;SDS011;59118;54.322;18.576;2022-07-29T03:06:15;9.13;;;3.80;;
71320;SDS011;59118;54.322;18.576;2022-07-29T03:09:03;11.23;;;4.18;;
71320;SDS011;59118;54.322;18.576;2022-07-29T03:11:37;10.27;;;3.95;;
71320;SDS011;59118;54.322;18.576;2022-07-29T03:14:16;9.87;;;3.97;;
71320;SDS011;59118;54.322;18.576;2022-07-29T03:16:44;12.65;;;4.82;;
71320;SDS011;59118;54.322;18.576;2022-07-29T03:19:11;10.52;;;3.92;;
71320;SDS011;59118;54.322;18.576;2022-07-29T03:21:38;11.77;;;3.78;;
71320;SDS011;59118;54.322;18.576;2022-07-29T03:24:05;11.13;;;4.03;;
71320;SDS011;59118;54.322;18.576;2022-07-29T03:26:36;11.73;;;3.97;;
71320;SDS011;59118;54.322;18.576;2022-07-29T03:29:02;8.95;;;3.50;;
71320;SDS011;59118;54.322;18.576;2022-07-29T03:31:29;8.98;;;3.50;;
71320;SDS011;59118;54.322;18.576;2022-07-29T03:33:55;9.82;;;3.90;;
71320;SDS011;59118;54.322;18.576;2022-07-29T03:36:23;11.13;;;4.07;;
71320;SDS011;59118;54.322;18.576;2022-07-29T03:38:50;8.23;;;3.83;;
71320;SDS011;59118;54.322;18.576;2022-07-29T03:41:17;13.30;;;4.07;;
71320;SDS011;59118;54.322;18.576;2022-07-29T03:43:47;10.90;;;4.32;;
71320;SDS011;59118;54.322;18.576;2022-07-29T03:46:15;9.07;;;3.78;;
71320;SDS011;59118;54.322;18.576;2022-07-29T03:48:46;10.68;;;3.88;;
71320;SDS011;59118;54.322;18.576;2022-07-29T03:51:13;9.50;;;4.17;;
71320;SDS011;59118;54.322;18.576;2022-07-29T03:53:39;11.18;;;4.05;;
71320;SDS011;59118;54.322;18.576;2022-07-29T03:56:06;9.98;;;3.90;;
71320;SDS011;59118;54.322;18.576;2022-07-29T03:58:34;10.60;;;3.90;;
71320;SDS011;59118;54.322;18.576;2022-07-29T04:01:00;10.70;;;4.13;;
71320;SDS011;59118;54.322;18.576;2022-07-29T04:03:27;11.80;;;3.80;;
71320;SDS011;59118;54.322;18.576;2022-07-29T04:06:00;11.13;;;4.38;;
71320;SDS011;59118;54.322;18.576;2022-07-29T04:08:28;10.93;;;3.50;;
71320;SDS011;59118;54.322;18.576;2022-07-29T04:10:55;13.00;;;4.22;;
71320;SDS011;59118;54.322;18.576;2022-07-29T04:13:22;8.48;;;3.38;;
71320;SDS011;59118;54.322;18.576;2022-07-29T04:15:48;10.57;;;4.10;;
71320;SDS011;59118;54.322;18.576;2022-07-29T04:18:15;8.75;;;3.60;;
71320;SDS011;59118;54.322;18.576;2022-07-29T04:20:41;9.35;;;4.10;;
71320;SDS011;59118;54.322;18.576;2022-07-29T04:23:08;12.50;;;4.00;;
71320;SDS011;59118;54.322;18.576;2022-07-29T04:25:39;9.15;;;4.03;;
71320;SDS011;59118;54.322;18.576;2022-07-29T04:28:06;9.27;;;4.20;;
71320;SDS011;59118;54.322;18.576;2022-07-29T04:30:34;12.90;;;4.32;;
71320;SDS011;59118;54.322;18.576;2022-07-29T04:33:04;10.30;;;3.97;;
71320;SDS011;59118;54.322;18.576;2022-07-29T04:35:33;10.68;;;4.28;;
71320;SDS011;59118;54.322;18.576;2022-07-29T04:38:08;11.88;;;4.47;;
71320;SDS011;59118;54.322;18.576;2022-07-29T04:40:42;10.07;;;4.10;;
71320;SDS011;59118;54.322;18.576;2022-07-29T04:43:09;10.35;;;3.92;;
71320;SDS011;59118;54.322;18.576;2022-07-29T04:45:37;10.15;;;4.18;;
71320;SDS011;59118;54.322;18.576;2022-07-29T04:48:04;11.88;;;3.67;;
71320;SDS011;59118;54.322;18.576;2022-07-29T04:50:30;7.38;;;2.80;;
71320;SDS011;59118;54.322;18.576;2022-07-29T04:52:58;7.97;;;2.87;;
71320;SDS011;59118;54.322;18.576;2022-07-29T04:55:24;9.32;;;2.72;;
71320;SDS011;59118;54.322;18.576;2022-07-29T04:57:51;7.70;;;2.40;;
71320;SDS011;59118;54.322;18.576;2022-07-29T05:00:18;6.90;;;1.65;;
71320;SDS011;59118;54.322;18.576;2022-07-29T05:02:44;4.28;;;1.25;;
71320;SDS011;59118;54.322;18.576;2022-07-29T05:05:11;5.97;;;1.70;;
71320;SDS011;59118;54.322;18.576;2022-07-29T05:07:40;4.90;;;1.50;;
71320;SDS011;59118;54.322;18.576;2022-07-29T05:10:06;5.07;;;1.70;;
71320;SDS011;59118;54.322;18.576;2022-07-29T05:12:34;4.57;;;1.80;;
71320;SDS011;59118;54.322;18.576;2022-07-29T05:15:00;5.78;;;1.85;;
71320;SDS011;59118;54.322;18.576;2022-07-29T05:17:27;4.43;;;1.83;;
71320;SDS011;59118;54.322;18.576;2022-07-29T05:19:53;5.53;;;1.50;;
71320;SDS011;59118;54.322;18.576;2022-07-29T05:22:20;4.82;;;1.50;;
71320;SDS011;59118;54.322;18.576;2022-07-29T05:24:47;4.85;;;1.50;;
71320;SDS011;59118;54.322;18.576;2022-07-29T05:27:17;4.38;;;1.40;;
71320;SDS011;59118;54.322;18.576;2022-07-29T05:29:43;5.30;;;1.97;;
71320;SDS011;59118;54.322;18.576;2022-07-29T05:32:11;4.22;;;1.40;;
71320;SDS011;59118;54.322;18.576;2022-07-29T05:34:38;7.70;;;1.50;;
71320;SDS011;59118;54.322;18.576;2022-07-29T05:37:16;6.25;;;1.67;;
71320;SDS011;59118;54.322;18.576;2022-07-29T05:39:44;5.32;;;1.40;;
71320;SDS011;59118;54.322;18.576;2022-07-29T05:42:16;6.30;;;1.30;;
71320;SDS011;59118;54.322;18.576;2022-07-29T05:44:42;4.40;;;1.33;;
71320;SDS011;59118;54.322;18.576;2022-07-29T05:47:09;3.42;;;1.25;;
71320;SDS011;59118;54.322;18.576;2022-07-29T05:49:35;4.78;;;1.20;;
71320;SDS011;59118;54.322;18.576;2022-07-29T05:52:03;5.55;;;1.20;;
71320;SDS011;59118;54.322;18.576;2022-07-29T05:54:30;4.30;;;1.20;;
71320;SDS011;59118;54.322;18.576;2022-07-29T05:56:57;5.75;;;1.17;;
71320;SDS011;59118;54.322;18.576;2022-07-29T05:59:23;3.30;;;0.80;;
71320;SDS011;59118;54.322;18.576;2022-07-29T06:01:55;7.07;;;1.02;;
71320;SDS011;59118;54.322;18.576;2022-07-29T06:04:24;4.20;;;0.93;;
71320;SDS011;59118;54.322;18.576;2022-07-29T06:06:51;3.33;;;0.83;;
71320;SDS011;59118;54.322;18.576;2022-07-29T06:09:17;5.45;;;1.08;;
71320;SDS011;59118;54.322;18.576;2022-07-29T06:11:44;1.92;;;1.00;;
71320;SDS011;59118;54.322;18.576;2022-07-29T06:14:10;7.47;;;0.85;;
71320;SDS011;59118;54.322;18.576;2022-07-29T06:16:37;2.15;;;0.70;;
71320;SDS011;59118;54.322;18.576;2022-07-29T06:19:05;3.97;;;0.90;;
71320;SDS011;59118;54.322;18.576;2022-07-29T06:21:32;6.72;;;1.00;;
71320;SDS011;59118;54.322;18.576;2022-07-29T06:24:03;2.55;;;0.80;;
71320;SDS011;59118;54.322;18.576;2022-07-29T06:26:30;3.95;;;1.00;;
71320;SDS011;59118;54.322;18.576;2022-07-29T06:29:04;5.30;;;1.00;;
71320;SDS011;59118;54.322;18.576;2022-07-29T06:31:32;2.20;;;0.70;;
71320;SDS011;59118;54.322;18.576;2022-07-29T06:33:59;2.40;;;0.63;;
71320;SDS011;59118;54.322;18.576;2022-07-29T06:36:27;3.53;;;0.80;;
71320;SDS011;59118;54.322;18.576;2022-07-29T06:38:54;1.67;;;0.70;;
71320;SDS011;59118;54.322;18.576;2022-07-29T06:41:21;2.55;;;0.70;;
71320;SDS011;59118;54.322;18.576;2022-07-29T06:43:50;4.73;;;1.00;;
71320;SDS011;59118;54.322;18.576;2022-07-29T06:46:21;3.28;;;0.77;;
71320;SDS011;59118;54.322;18.576;2022-07-29T06:48:50;1.20;;;0.70;;
71320;SDS011;59118;54.322;18.576;2022-07-29T06:51:21;2.05;;;0.70;;
71320;SDS011;59118;54.322;18.576;2022-07-29T06:53:51;2.22;;;0.80;;
71320;SDS011;59118;54.322;18.576;2022-07-29T06:56:28;2.47;;;0.70;;
71320;SDS011;59118;54.322;18.576;2022-07-29T06:59:05;3.28;;;0.80;;
71320;SDS011;59118;54.322;18.576;2022-07-29T07:01:36;2.85;;;0.70;;
71320;SDS011;59118;54.322;18.576;2022-07-29T07:04:06;5.97;;;0.90;;
71320;SDS011;59118;54.322;18.576;2022-07-29T07:06:34;3.35;;;0.80;;
71320;SDS011;59118;54.322;18.576;2022-07-29T07:09:05;2.83;;;0.90;;
71320;SDS011;59118;54.322;18.576;2022-07-29T07:11:31;4.28;;;0.82;;
71320;SDS011;59118;54.322;18.576;2022-07-29T07:13:58;2.13;;;0.90;;
71320;SDS011;59118;54.322;18.576;2022-07-29T07:16:29;2.88;;;0.77;;
71320;SDS011;59118;54.322;18.576;2022-07-29T07:18:56;5.53;;;0.95;;
71320;SDS011;59118;54.322;18.576;2022-07-29T07:21:22;5.27;;;0.80;;
71320;SDS011;59118;54.322;18.576;2022-07-29T07:23:49;2.72;;;0.70;;
71320;SDS011;59118;54.322;18.576;2022-07-29T07:26:15;4.47;;;0.85;;
71320;SDS011;59118;54.322;18.576;2022-07-29T07:28:42;2.90;;;0.82;;
71320;SDS011;59118;54.322;18.576;2022-07-29T07:31:11;2.88;;;1.00;;
71320;SDS011;59118;54.322;18.576;2022-07-29T07:33:37;3.37;;;0.80;;
71320;SDS011;59118;54.322;18.576;2022-07-29T07:36:05;7.13;;;0.70;;
71320;SDS011;59118;54.322;18.576;2022-07-29T07:38:31;2.00;;;0.70;;
71320;SDS011;59118;54.322;18.576;2022-07-29T07:40:58;2.40;;;0.70;;
71320;SDS011;59118;54.322;18.576;2022-07-29T07:43:25;6.75;;;0.98;;
71320;SDS011;59118;54.322;18.576;2022-07-29T07:45:52;4.53;;;0.70;;
71320;SDS011;59118;54.322;18.576;2022-07-29T07:48:21;2.13;;;0.80;;
71320;SDS011;59118;54.322;18.576;2022-07-29T07:50:48;7.30;;;0.90;;
71320;SDS011;59118;54.322;18.576;2022-07-29T07:53:15;6.22;;;0.90;;
71320;SDS011;59118;54.322;18.576;2022-07-29T07:55:42;10.20;;;1.20;;
71320;SDS011;59118;54.322;18.576;2022-07-29T07:58:29;1.47;;;0.63;;
71320;SDS011;59118;54.322;18.576;2022-07-29T08:00:58;3.53;;;0.65;;
71320;SDS011;59118;54.322;18.576;2022-07-29T08:03:33;6.15;;;0.88;;
71320;SDS011;59118;54.322;18.576;2022-07-29T08:05:59;6.18;;;1.00;;
71320;SDS011;59118;54.322;18.576;2022-07-29T08:08:26;2.22;;;0.70;;
71320;SDS011;59118;54.322;18.576;2022-07-29T08:10:52;3.60;;;0.70;;
71320;SDS011;59118;54.322;18.576;2022-07-29T08:13:21;1.45;;;0.63;;
71320;SDS011;59118;54.322;18.576;2022-07-29T08:15:49;2.33;;;0.60;;
71320;SDS011;59118;54.322;18.576;2022-07-29T08:18:43;1.50;;;0.70;;
71320;SDS011;59118;54.322;18.576;2022-07-29T08:21:12;1.95;;;0.80;;
71320;SDS011;59118;54.322;18.576;2022-07-29T08:23:42;1.53;;;0.60;;
71320;SDS011;59118;54.322;18.576;2022-07-29T08:26:25;1.75;;;0.50;;
71320;SDS011;59118;54.322;18.576;2022-07-29T08:28:52;2.75;;;0.70;;
71320;SDS011;59118;54.322;18.576;2022-07-29T08:31:21;1.77;;;0.70;;
71320;SDS011;59118;54.322;18.576;2022-07-29T08:33:47;0.85;;;0.60;;
71320;SDS011;59118;54.322;18.576;2022-07-29T08:36:14;0.60;;;0.50;;
71320;SDS011;59118;54.322;18.576;2022-07-29T08:38:40;1.98;;;0.65;;
71320;SDS011;59118;54.322;18.576;2022-07-29T08:41:08;0.90;;;0.50;;
71320;SDS011;59118;54.322;18.576;2022-07-29T08:43:35;1.77;;;0.63;;
71320;SDS011;59118;54.322;18.576;2022-07-29T08:46:03;1.75;;;0.77;;
71320;SDS011;59118;54.322;18.576;2022-07-29T08:48:30;1.27;;;0.60;;
71320;SDS011;59118;54.322;18.576;2022-07-29T08:50:57;1.27;;;0.60;;
71320;SDS011;59118;54.322;18.576;2022-07-29T08:53:25;3.28;;;0.70;;
71320;SDS011;59118;54.322;18.576;2022-07-29T08:55:54;3.25;;;0.70;;
71320;SDS011;59118;54.322;18.576;2022-07-29T08:58:32;2.05;;;0.50;;
71320;SDS011;59118;54.322;18.576;2022-07-29T09:01:02;1.10;;;0.60;;
71320;SDS011;59118;54.322;18.576;2022-07-29T09:03:33;1.67;;;0.60;;
71320;SDS011;59118;54.322;18.576;2022-07-29T09:06:02;2.03;;;0.77;;
71320;SDS011;59118;54.322;18.576;2022-07-29T09:08:32;0.75;;;0.52;;
71320;SDS011;59118;54.322;18.576;2022-07-29T09:11:00;1.77;;;0.70;;
71320;SDS011;59118;54.322;18.576;2022-07-29T09:13:30;2.43;;;0.60;;
71320;SDS011;59118;54.322;18.576;2022-07-29T09:15:57;0.85;;;0.55;;
71320;SDS011;59118;54.322;18.576;2022-07-29T09:18:32;2.63;;;0.70;;
71320;SDS011;59118;54.322;18.576;2022-07-29T09:21:04;1.63;;;0.70;;
71320;SDS011;59118;54.322;18.576;2022-07-29T09:24:04;1.10;;;0.68;;
71320;SDS011;59118;54.322;18.576;2022-07-29T09:26:39;3.20;;;0.70;;
71320;SDS011;59118;54.322;18.576;2022-07-29T09:29:08;1.73;;;0.60;;
71320;SDS011;59118;54.322;18.576;2022-07-29T09:31:36;3.55;;;0.80;;
71320;SDS011;59118;54.322;18.576;2022-07-29T09:34:05;4.22;;;0.77;;
71320;SDS011;59118;54.322;18.576;2022-07-29T09:39:07;4.97;;;1.03;;
71320;SDS011;59118;54.322;18.576;2022-07-29T09:41:48;1.58;;;0.88;;
71320;SDS011;59118;54.322;18.576;2022-07-29T09:44:21;1.27;;;0.80;;
71320;SDS011;59118;54.322;18.576;2022-07-29T09:46:53;4.57;;;0.90;;
71320;SDS011;59118;54.322;18.576;2022-07-29T09:49:24;2.35;;;0.90;;
71320;SDS011;59118;54.322;18.576;2022-07-29T09:51:58;4.77;;;0.80;;
71320;SDS011;59118;54.322;18.576;2022-07-29T09:54:35;3.30;;;0.80;;
71320;SDS011;59118;54.322;18.576;2022-07-29T09:57:06;2.63;;;0.90;;
71320;SDS011;59118;54.322;18.576;2022-07-29T09:59:38;3.38;;;0.85;;
71320;SDS011;59118;54.322;18.576;2022-07-29T10:02:15;3.55;;;0.80;;
71320;SDS011;59118;54.322;18.576;2022-07-29T10:04:49;3.33;;;0.80;;
71320;SDS011;59118;54.322;18.576;2022-07-29T10:07:15;1.38;;;0.70;;
71320;SDS011;59118;54.322;18.576;2022-07-29T10:09:49;3.63;;;0.73;;
71320;SDS011;59118;54.322;18.576;2022-07-29T10:12:24;9.82;;;1.20;;
71320;SDS011;59118;54.322;18.576;2022-07-29T10:14:56;3.05;;;0.90;;
71320;SDS011;59118;54.322;18.576;2022-07-29T10:17:23;4.40;;;0.90;;
71320;SDS011;59118;54.322;18.576;2022-07-29T10:19:52;8.00;;;0.80;;
71320;SDS011;59118;54.322;18.576;2022-07-29T10:22:18;20.15;;;1.33;;
71320;SDS011;59118;54.322;18.576;2022-07-29T10:25:05;3.97;;;0.80;;
71320;SDS011;59118;54.322;18.576;2022-07-29T10:27:34;5.65;;;1.00;;
71320;SDS011;59118;54.322;18.576;2022-07-29T10:30:01;3.40;;;0.77;;
71320;SDS011;59118;54.322;18.576;2022-07-29T10:32:39;2.60;;;0.80;;
71320;SDS011;59118;54.322;18.576;2022-07-29T10:35:15;3.53;;;0.75;;
71320;SDS011;59118;54.322;18.576;2022-07-29T10:43:32;1.90;;;0.80;;
71320;SDS011;59118;54.322;18.576;2022-07-29T10:46:04;3.20;;;0.73;;
71320;SDS011;59118;54.322;18.576;2022-07-29T10:48:33;1.80;;;0.60;;
71320;SDS011;59118;54.322;18.576;2022-07-29T10:51:00;1.80;;;0.70;;
71320;SDS011;59118;54.322;18.576;2022-07-29T10:53:50;1.75;;;0.90;;
71320;SDS011;59118;54.322;18.576;2022-07-29T10:56:28;4.17;;;1.10;;
71320;SDS011;59118;54.322;18.576;2022-07-29T11:05:12;15.18;;;1.30;;
71320;SDS011;59118;54.322;18.576;2022-07-29T11:08:16;16.15;;;1.50;;
71320;SDS011;59118;54.322;18.576;2022-07-29T11:10:53;2.03;;;0.63;;
71320;SDS011;59118;54.322;18.576;2022-07-29T11:13:46;4.00;;;0.70;;
71320;SDS011;59118;54.322;18.576;2022-07-29T11:16:14;2.05;;;0.80;;
71320;SDS011;59118;54.322;18.576;2022-07-29T11:21:39;3.08;;;0.60;;
71320;SDS011;59118;54.322;18.576;2022-07-29T11:29:52;4.30;;;0.85;;
71320;SDS011;59118;54.322;18.576;2022-07-29T11:32:47;4.32;;;0.60;;
71320;SDS011;59118;54.322;18.576;2022-07-29T11:43:53;3.50;;;0.70;;
71320;SDS011;59118;54.322;18.576;2022-07-29T11:49:18;1.40;;;0.60;;
71320;SDS011;59118;54.322;18.576;2022-07-29T11:51:58;3.40;;;0.70;;
71320;SDS011;59118;54.322;18.576;2022-07-29T11:54:30;4.03;;;1.25;;
71320;SDS011;59118;54.322;18.576;2022-07-29T11:57:20;2.42;;;0.70;;
71320;SDS011;59118;54.322;18.576;2022-07-29T11:59:47;1.38;;;0.60;;
71320;SDS011;59118;54.322;18.576;2022-07-29T12:02:15;1.00;;;0.60;;
71320;SDS011;59118;54.322;18.576;2022-07-29T12:05:02;4.23;;;0.70;;
71320;SDS011;59118;54.322;18.576;2022-07-29T12:07:36;2.33;;;0.70;;
71320;SDS011;59118;54.322;18.576;2022-07-29T12:10:06;1.90;;;0.70;;
71320;SDS011;59118;54.322;18.576;2022-07-29T12:12:48;0.73;;;0.63;;
71320;SDS011;59118;54.322;18.576;2022-07-29T12:15:19;1.40;;;0.70;;
71320;SDS011;59118;54.322;18.576;2022-07-29T12:17:47;1.53;;;0.60;;
71320;SDS011;59118;54.322;18.576;2022-07-29T12:20:21;1.25;;;0.70;;
71320;SDS011;59118;54.322;18.576;2022-07-29T12:23:13;4.00;;;0.70;;
71320;SDS011;59118;54.322;18.576;2022-07-29T12:25:42;2.55;;;0.70;;
71320;SDS011;59118;54.322;18.576;2022-07-29T12:28:15;5.25;;;0.82;;
71320;SDS011;59118;54.322;18.576;2022-07-29T12:30:52;3.47;;;0.80;;
71320;SDS011;59118;54.322;18.576;2022-07-29T12:33:24;3.50;;;0.70;;
71320;SDS011;59118;54.322;18.576;2022-07-29T12:35:54;5.03;;;0.75;;
71320;SDS011;59118;54.322;18.576;2022-07-29T12:38:33;4.30;;;0.70;;
71320;SDS011;59118;54.322;18.576;2022-07-29T12:41:01;0.98;;;0.70;;
71320;SDS011;59118;54.322;18.576;2022-07-29T12:43:29;3.10;;;0.90;;
71320;SDS011;59118;54.322;18.576;2022-07-29T12:46:11;5.85;;;0.70;;
71320;SDS011;59118;54.322;18.576;2022-07-29T12:48:42;5.20;;;0.98;;
71320;SDS011;59118;54.322;18.576;2022-07-29T12:51:10;2.55;;;0.70;;
71320;SDS011;59118;54.322;18.576;2022-07-29T12:53:38;1.65;;;0.82;;
71320;SDS011;59118;54.322;18.576;2022-07-29T12:56:05;3.83;;;0.73;;
71320;SDS011;59118;54.322;18.576;2022-07-29T12:58:52;1.85;;;0.63;;
71320;SDS011;59118;54.322;18.576;2022-07-29T13:01:18;1.88;;;0.75;;
71320;SDS011;59118;54.322;18.576;2022-07-29T13:11:33;2.95;;;0.80;;
71320;SDS011;59118;54.322;18.576;2022-07-29T13:14:05;1.63;;;0.80;;
71320;SDS011;59118;54.322;18.576;2022-07-29T13:16:36;3.28;;;0.80;;
71320;SDS011;59118;54.322;18.576;2022-07-29T13:19:32;2.85;;;1.02;;
71320;SDS011;59118;54.322;18.576;2022-07-29T13:21:59;2.07;;;0.90;;
71320;SDS011;59118;54.322;18.576;2022-07-29T13:24:26;1.58;;;0.70;;
71320;SDS011;59118;54.322;18.576;2022-07-29T13:26:55;3.15;;;0.90;;
71320;SDS011;59118;54.322;18.576;2022-07-29T13:29:21;1.25;;;0.70;;
71320;SDS011;59118;54.322;18.576;2022-07-29T13:31:48;3.10;;;0.80;;
71320;SDS011;59118;54.322;18.576;2022-07-29T13:34:15;5.07;;;1.90;;
71320;SDS011;59118;54.322;18.576;2022-07-29T13:36:41;3.58;;;1.05;;
71320;SDS011;59118;54.322;18.576;2022-07-29T13:39:08;3.92;;;1.65;;
71320;SDS011;59118;54.322;18.576;2022-07-29T13:41:34;4.32;;;2.13;;
71320;SDS011;59118;54.322;18.576;2022-07-29T13:44:02;4.70;;;1.35;;
71320;SDS011;59118;54.322;18.576;2022-07-29T13:46:31;3.80;;;1.57;;
71320;SDS011;59118;54.322;18.576;2022-07-29T13:48:57;4.65;;;0.90;;
71320;SDS011;59118;54.322;18.576;2022-07-29T13:51:24;1.67;;;0.93;;
71320;SDS011;59118;54.322;18.576;2022-07-29T13:53:51;4.20;;;2.72;;
71320;SDS011;59118;54.322;18.576;2022-07-29T13:56:17;8.63;;;3.25;;
71320;SDS011;59118;54.322;18.576;2022-07-29T13:58:44;5.87;;;1.10;;
71320;SDS011;59118;54.322;18.576;2022-07-29T14:01:10;5.97;;;1.40;;
71320;SDS011;59118;54.322;18.576;2022-07-29T14:03:37;2.38;;;0.90;;
71320;SDS011;59118;54.322;18.576;2022-07-29T14:06:11;4.68;;;0.80;;
71320;SDS011;59118;54.322;18.576;2022-07-29T14:08:37;4.15;;;1.13;;
71320;SDS011;59118;54.322;18.576;2022-07-29T14:11:04;6.80;;;0.93;;
71320;SDS011;59118;54.322;18.576;2022-07-29T14:13:31;2.83;;;0.80;;
71320;SDS011;59118;54.322;18.576;2022-07-29T14:15:57;1.83;;;0.98;;
71320;SDS011;59118;54.322;18.576;2022-07-29T14:18:24;3.03;;;0.82;;
71320;SDS011;59118;54.322;18.576;2022-07-29T14:20:50;6.18;;;0.93;;
71320;SDS011;59118;54.322;18.576;2022-07-29T14:23:17;3.37;;;0.90;;
71320;SDS011;59118;54.322;18.576;2022-07-29T14:25:45;2.53;;;0.80;;
71320;SDS011;59118;54.322;18.576;2022-07-29T14:28:14;4.50;;;0.95;;
71320;SDS011;59118;54.322;18.576;2022-07-29T14:30:42;2.63;;;0.85;;
71320;SDS011;59118;54.322;18.576;2022-07-29T14:33:09;2.13;;;0.80;;
71320;SDS011;59118;54.322;18.576;2022-07-29T14:35:36;2.67;;;0.83;;
71320;SDS011;59118;54.322;18.576;2022-07-29T14:38:02;5.18;;;0.98;;
71320;SDS011;59118;54.322;18.576;2022-07-29T14:40:29;6.43;;;1.30;;
71320;SDS011;59118;54.322;18.576;2022-07-29T14:43:03;2.05;;;0.80;;
71320;SDS011;59118;54.322;18.576;2022-07-29T14:45:30;5.63;;;0.80;;
71320;SDS011;59118;54.322;18.576;2022-07-29T14:47:58;1.87;;;0.77;;
71320;SDS011;59118;54.322;18.576;2022-07-29T14:50:26;4.07;;;0.90;;
71320;SDS011;59118;54.322;18.576;2022-07-29T14:52:59;3.22;;;0.80;;
71320;SDS011;59118;54.322;18.576;2022-07-29T14:55:28;3.15;;;0.90;;
71320;SDS011;59118;54.322;18.576;2022-07-29T14:57:55;1.70;;;0.90;;
71320;SDS011;59118;54.322;18.576;2022-07-29T15:00:35;3.33;;;0.73;;
71320;SDS011;59118;54.322;18.576;2022-07-29T15:03:03;2.10;;;1.00;;
71320;SDS011;59118;54.322;18.576;2022-07-29T15:05:30;3.63;;;1.10;;
71320;SDS011;59118;54.322;18.576;2022-07-29T15:07:57;3.38;;;1.00;;
71320;SDS011;59118;54.322;18.576;2022-07-29T15:10:24;2.75;;;1.00;;
71320;SDS011;59118;54.322;18.576;2022-07-29T15:12:55;4.23;;;0.67;;
71320;SDS011;59118;54.322;18.576;2022-07-29T15:15:21;7.40;;;1.10;;
71320;SDS011;59118;54.322;18.576;2022-07-29T15:17:48;3.88;;;1.30;;
71320;SDS011;59118;54.322;18.576;2022-07-29T15:20:14;3.65;;;0.80;;
71320;SDS011;59118;54.322;18.576;2022-07-29T15:22:43;1.83;;;0.80;;
71320;SDS011;59118;54.322;18.576;2022-07-29T15:25:10;3.00;;;0.77;;
71320;SDS011;59118;54.322;18.576;2022-07-29T15:27:37;3.20;;;0.70;;
71320;SDS011;59118;54.322;18.576;2022-07-29T15:30:06;2.40;;;0.80;;
71320;SDS011;59118;54.322;18.576;2022-07-29T15:32:33;3.60;;;0.90;;
71320;SDS011;59118;54.322;18.576;2022-07-29T15:35:00;2.28;;;0.82;;
71320;SDS011;59118;54.322;18.576;2022-07-29T15:37:26;3.00;;;0.70;;
71320;SDS011;59118;54.322;18.576;2022-07-29T15:40:14;1.90;;;0.70;;
71320;SDS011;59118;54.322;18.576;2022-07-29T15:42:41;4.20;;;0.70;;
71320;SDS011;59118;54.322;18.576;2022-07-29T15:45:08;4.22;;;0.88;;
71320;SDS011;59118;54.322;18.576;2022-07-29T15:47:35;3.28;;;0.80;;
71320;SDS011;59118;54.322;18.576;2022-07-29T15:50:01;5.03;;;0.80;;